sensor_id;sensor_type;location;lat;lon;timestamp;P1;durP1;ratioP1;P2;durP2;ratioP2
3563;SDS011;1796;52.388;13.096;2023-11-19T00:01:28;6.43;;;5.87;;
3563;SDS011;1796;52.388;13.096;2023-11-19T00:03:55;8.33;;;5.87;;
3563;SDS011;1796;52.388;13.096;2023-11-19T00:06:22;6.87;;;5.97;;
3563;SDS011;1796;52.388;13.096;2023-11-19T00:08:48;5.70;;;5.20;;
3563;SDS011;1796;52.388;13.096;2023-11-19T00:11:16;10.47;;;5.60;;
3563;SDS011;1796;52.388;13.096;2023-11-19T00:13:43;5.60;;;5.10;;
3563;SDS011;1796;52.388;13.096;2023-11-19T00:16:10;6.80;;;5.50;;
3563;SDS011;1796;52.388;13.096;2023-11-19T00:18:38;5.63;;;4.87;;
3563;SDS011;1796;52.388;13.096;2023-11-19T00:21:05;4.87;;;4.47;;
3563;SDS011;1796;52.388;13.096;2023-11-19T00:23:33;6.90;;;5.50;;
3563;SDS011;1796;52.388;13.096;2023-11-19T00:26:00;6.63;;;5.63;;
3563;SDS011;1796;52.388;13.096;2023-11-19T00:28:27;5.93;;;5.43;;
3563;SDS011;1796;52.388;13.096;2023-11-19T00:30:53;5.57;;;5.07;;
3563;SDS011;1796;52.388;13.096;2023-11-19T00:33:20;8.87;;;5.60;;
3563;SDS011;1796;52.388;13.096;2023-11-19T00:35:49;6.13;;;5.00;;
3563;SDS011;1796;52.388;13.096;2023-11-19T00:38:16;8.93;;;5.40;;
3563;SDS011;1796;52.388;13.096;2023-11-19T00:40:43;9.00;;;4.83;;
3563;SDS011;1796;52.388;13.096;2023-11-19T00:43:10;5.27;;;4.77;;
3563;SDS011;1796;52.388;13.096;2023-11-19T00:45:37;6.67;;;5.93;;
3563;SDS011;1796;52.388;13.096;2023-11-19T00:48:04;7.03;;;5.10;;
3563;SDS011;1796;52.388;13.096;2023-11-19T00:50:32;5.80;;;5.20;;
3563;SDS011;1796;52.388;13.096;2023-11-19T00:53:00;5.77;;;5.20;;
3563;SDS011;1796;52.388;13.096;2023-11-19T00:55:28;5.83;;;5.23;;
3563;SDS011;1796;52.388;13.096;2023-11-19T00:57:55;5.63;;;5.10;;
3563;SDS011;1796;52.388;13.096;2023-11-19T01:00:22;8.53;;;4.93;;
3563;SDS011;1796;52.388;13.096;2023-11-19T01:02:52;8.40;;;5.10;;
3563;SDS011;1796;52.388;13.096;2023-11-19T01:05:19;6.40;;;5.00;;
3563;SDS011;1796;52.388;13.096;2023-11-19T01:07:47;5.30;;;4.80;;
3563;SDS011;1796;52.388;13.096;2023-11-19T01:10:16;6.53;;;4.93;;
3563;SDS011;1796;52.388;13.096;2023-11-19T01:12:43;5.03;;;4.63;;
3563;SDS011;1796;52.388;13.096;2023-11-19T01:15:10;4.30;;;3.90;;
3563;SDS011;1796;52.388;13.096;2023-11-19T01:17:38;4.90;;;4.50;;
3563;SDS011;1796;52.388;13.096;2023-11-19T01:20:05;5.67;;;4.60;;
3563;SDS011;1796;52.388;13.096;2023-11-19T01:22:37;7.83;;;4.80;;
3563;SDS011;1796;52.388;13.096;2023-11-19T01:25:04;5.27;;;4.40;;
3563;SDS011;1796;52.388;13.096;2023-11-19T01:27:33;5.47;;;4.80;;
3563;SDS011;1796;52.388;13.096;2023-11-19T01:30:01;5.20;;;4.70;;
3563;SDS011;1796;52.388;13.096;2023-11-19T01:32:29;5.60;;;4.43;;
3563;SDS011;1796;52.388;13.096;2023-11-19T01:34:56;6.40;;;5.13;;
3563;SDS011;1796;52.388;13.096;2023-11-19T01:37:23;5.00;;;4.60;;
3563;SDS011;1796;52.388;13.096;2023-11-19T01:39:50;5.97;;;4.83;;
3563;SDS011;1796;52.388;13.096;2023-11-19T01:42:17;8.83;;;4.83;;
3563;SDS011;1796;52.388;13.096;2023-11-19T01:44:55;4.60;;;4.30;;
3563;SDS011;1796;52.388;13.096;2023-11-19T01:47:24;5.40;;;4.83;;
3563;SDS011;1796;52.388;13.096;2023-11-19T01:49:52;8.30;;;4.63;;
3563;SDS011;1796;52.388;13.096;2023-11-19T01:52:19;4.60;;;4.20;;
3563;SDS011;1796;52.388;13.096;2023-11-19T01:54:46;7.07;;;5.37;;
3563;SDS011;1796;52.388;13.096;2023-11-19T01:57:14;5.53;;;5.03;;
3563;SDS011;1796;52.388;13.096;2023-11-19T01:59:41;5.40;;;5.00;;
3563;SDS011;1796;52.388;13.096;2023-11-19T02:02:10;5.90;;;4.63;;
3563;SDS011;1796;52.388;13.096;2023-11-19T02:04:37;12.53;;;5.63;;
3563;SDS011;1796;52.388;13.096;2023-11-19T02:07:06;7.87;;;5.70;;
3563;SDS011;1796;52.388;13.096;2023-11-19T02:09:34;5.17;;;4.70;;
3563;SDS011;1796;52.388;13.096;2023-11-19T02:12:01;4.97;;;4.57;;
3563;SDS011;1796;52.388;13.096;2023-11-19T02:14:28;5.40;;;4.90;;
3563;SDS011;1796;52.388;13.096;2023-11-19T02:16:56;6.53;;;5.00;;
3563;SDS011;1796;52.388;13.096;2023-11-19T02:19:24;5.23;;;4.77;;
3563;SDS011;1796;52.388;13.096;2023-11-19T02:21:50;5.10;;;4.63;;
3563;SDS011;1796;52.388;13.096;2023-11-19T02:24:17;7.20;;;4.40;;
3563;SDS011;1796;52.388;13.096;2023-11-19T02:26:50;5.37;;;4.77;;
3563;SDS011;1796;52.388;13.096;2023-11-19T02:29:25;5.10;;;4.60;;
3563;SDS011;1796;52.388;13.096;2023-11-19T02:31:52;5.17;;;4.77;;
3563;SDS011;1796;52.388;13.096;2023-11-19T02:34:20;4.90;;;4.40;;
3563;SDS011;1796;52.388;13.096;2023-11-19T02:36:47;4.80;;;4.40;;
3563;SDS011;1796;52.388;13.096;2023-11-19T02:39:15;4.93;;;4.33;;
3563;SDS011;1796;52.388;13.096;2023-11-19T02:41:46;4.57;;;4.17;;
3563;SDS011;1796;52.388;13.096;2023-11-19T02:44:15;3.77;;;3.50;;
3563;SDS011;1796;52.388;13.096;2023-11-19T02:46:44;5.70;;;4.40;;
3563;SDS011;1796;52.388;13.096;2023-11-19T02:49:13;4.43;;;4.10;;
3563;SDS011;1796;52.388;13.096;2023-11-19T02:51:40;4.23;;;3.93;;
3563;SDS011;1796;52.388;13.096;2023-11-19T02:54:07;7.90;;;4.47;;
3563;SDS011;1796;52.388;13.096;2023-11-19T02:56:35;4.67;;;4.27;;
3563;SDS011;1796;52.388;13.096;2023-11-19T02:59:04;4.87;;;4.07;;
3563;SDS011;1796;52.388;13.096;2023-11-19T03:01:39;4.33;;;4.03;;
3563;SDS011;1796;52.388;13.096;2023-11-19T03:04:10;4.70;;;4.30;;
3563;SDS011;1796;52.388;13.096;2023-11-19T03:06:37;5.00;;;3.83;;
3563;SDS011;1796;52.388;13.096;2023-11-19T03:09:04;3.40;;;3.20;;
3563;SDS011;1796;52.388;13.096;2023-11-19T03:11:35;3.90;;;3.63;;
3563;SDS011;1796;52.388;13.096;2023-11-19T03:14:02;4.03;;;3.83;;
3563;SDS011;1796;52.388;13.096;2023-11-19T03:16:29;3.93;;;3.73;;
3563;SDS011;1796;52.388;13.096;2023-11-19T03:18:56;4.23;;;3.83;;
3563;SDS011;1796;52.388;13.096;2023-11-19T03:21:28;7.13;;;3.97;;
3563;SDS011;1796;52.388;13.096;2023-11-19T03:23:56;5.03;;;4.17;;
3563;SDS011;1796;52.388;13.096;2023-11-19T03:26:25;4.10;;;3.73;;
3563;SDS011;1796;52.388;13.096;2023-11-19T03:28:52;4.80;;;4.40;;
3563;SDS011;1796;52.388;13.096;2023-11-19T03:31:19;6.87;;;3.90;;
3563;SDS011;1796;52.388;13.096;2023-11-19T03:33:46;3.60;;;3.40;;
3563;SDS011;1796;52.388;13.096;2023-11-19T03:36:13;3.63;;;3.33;;
3563;SDS011;1796;52.388;13.096;2023-11-19T03:38:41;10.33;;;4.40;;
3563;SDS011;1796;52.388;13.096;2023-11-19T03:41:11;4.17;;;3.87;;
3563;SDS011;1796;52.388;13.096;2023-11-19T03:43:38;4.57;;;4.23;;
3563;SDS011;1796;52.388;13.096;2023-11-19T03:46:05;5.03;;;4.60;;
3563;SDS011;1796;52.388;13.096;2023-11-19T03:48:42;5.33;;;4.70;;
3563;SDS011;1796;52.388;13.096;2023-11-19T03:51:09;4.80;;;4.40;;
3563;SDS011;1796;52.388;13.096;2023-11-19T03:53:41;5.10;;;4.20;;
3563;SDS011;1796;52.388;13.096;2023-11-19T03:56:08;4.33;;;4.00;;
3563;SDS011;1796;52.388;13.096;2023-11-19T03:58:36;11.37;;;4.27;;
3563;SDS011;1796;52.388;13.096;2023-11-19T04:01:04;4.03;;;3.67;;
3563;SDS011;1796;52.388;13.096;2023-11-19T04:03:31;7.40;;;4.97;;
3563;SDS011;1796;52.388;13.096;2023-11-19T04:05:58;4.70;;;4.30;;
3563;SDS011;1796;52.388;13.096;2023-11-19T04:08:25;4.77;;;4.47;;
3563;SDS011;1796;52.388;13.096;2023-11-19T04:10:53;4.47;;;4.10;;
3563;SDS011;1796;52.388;13.096;2023-11-19T04:13:20;4.50;;;4.00;;
3563;SDS011;1796;52.388;13.096;2023-11-19T04:15:47;4.63;;;4.33;;
3563;SDS011;1796;52.388;13.096;2023-11-19T04:18:15;5.23;;;4.77;;
3563;SDS011;1796;52.388;13.096;2023-11-19T04:20:42;4.83;;;4.40;;
3563;SDS011;1796;52.388;13.096;2023-11-19T04:23:09;5.13;;;4.60;;
3563;SDS011;1796;52.388;13.096;2023-11-19T04:25:36;7.37;;;4.73;;
3563;SDS011;1796;52.388;13.096;2023-11-19T04:28:04;7.60;;;4.90;;
3563;SDS011;1796;52.388;13.096;2023-11-19T04:30:31;4.97;;;4.00;;
3563;SDS011;1796;52.388;13.096;2023-11-19T04:32:58;5.20;;;4.70;;
3563;SDS011;1796;52.388;13.096;2023-11-19T04:35:25;4.03;;;3.73;;
3563;SDS011;1796;52.388;13.096;2023-11-19T04:37:52;5.73;;;5.20;;
3563;SDS011;1796;52.388;13.096;2023-11-19T04:40:19;4.20;;;3.90;;
3563;SDS011;1796;52.388;13.096;2023-11-19T04:42:47;6.17;;;4.27;;
3563;SDS011;1796;52.388;13.096;2023-11-19T04:45:15;6.20;;;4.47;;
3563;SDS011;1796;52.388;13.096;2023-11-19T04:47:42;5.30;;;4.73;;
3563;SDS011;1796;52.388;13.096;2023-11-19T04:50:09;5.27;;;4.80;;
3563;SDS011;1796;52.388;13.096;2023-11-19T04:52:37;4.90;;;4.60;;
3563;SDS011;1796;52.388;13.096;2023-11-19T04:55:05;7.90;;;4.60;;
3563;SDS011;1796;52.388;13.096;2023-11-19T04:57:33;4.93;;;4.53;;
3563;SDS011;1796;52.388;13.096;2023-11-19T04:59:59;4.90;;;4.50;;
3563;SDS011;1796;52.388;13.096;2023-11-19T05:02:30;4.80;;;4.33;;
3563;SDS011;1796;52.388;13.096;2023-11-19T05:04:57;5.37;;;4.87;;
3563;SDS011;1796;52.388;13.096;2023-11-19T05:07:24;6.67;;;5.17;;
3563;SDS011;1796;52.388;13.096;2023-11-19T05:09:51;13.93;;;5.33;;
3563;SDS011;1796;52.388;13.096;2023-11-19T05:12:18;5.53;;;4.80;;
3563;SDS011;1796;52.388;13.096;2023-11-19T05:14:45;8.10;;;5.10;;
3563;SDS011;1796;52.388;13.096;2023-11-19T05:17:15;6.70;;;5.50;;
3563;SDS011;1796;52.388;13.096;2023-11-19T05:19:44;6.07;;;4.90;;
3563;SDS011;1796;52.388;13.096;2023-11-19T05:22:11;6.10;;;5.50;;
3563;SDS011;1796;52.388;13.096;2023-11-19T05:24:38;6.07;;;5.27;;
3563;SDS011;1796;52.388;13.096;2023-11-19T05:27:05;5.60;;;4.60;;
3563;SDS011;1796;52.388;13.096;2023-11-19T05:29:33;5.90;;;4.73;;
3563;SDS011;1796;52.388;13.096;2023-11-19T05:32:00;11.23;;;5.13;;
3563;SDS011;1796;52.388;13.096;2023-11-19T05:34:27;11.63;;;4.70;;
3563;SDS011;1796;52.388;13.096;2023-11-19T05:36:55;7.00;;;4.53;;
3563;SDS011;1796;52.388;13.096;2023-11-19T05:39:22;5.97;;;5.10;;
3563;SDS011;1796;52.388;13.096;2023-11-19T05:41:49;8.53;;;6.03;;
3563;SDS011;1796;52.388;13.096;2023-11-19T05:44:16;5.43;;;4.87;;
3563;SDS011;1796;52.388;13.096;2023-11-19T05:46:44;5.57;;;4.87;;
3563;SDS011;1796;52.388;13.096;2023-11-19T05:49:11;5.10;;;4.60;;
3563;SDS011;1796;52.388;13.096;2023-11-19T05:51:38;5.60;;;4.90;;
3563;SDS011;1796;52.388;13.096;2023-11-19T05:54:07;5.70;;;5.20;;
3563;SDS011;1796;52.388;13.096;2023-11-19T05:56:35;5.13;;;4.60;;
3563;SDS011;1796;52.388;13.096;2023-11-19T05:59:02;10.87;;;4.53;;
3563;SDS011;1796;52.388;13.096;2023-11-19T06:01:32;5.00;;;4.50;;
3563;SDS011;1796;52.388;13.096;2023-11-19T06:04:00;5.40;;;4.77;;
3563;SDS011;1796;52.388;13.096;2023-11-19T06:06:27;5.80;;;4.97;;
3563;SDS011;1796;52.388;13.096;2023-11-19T06:08:54;7.43;;;5.17;;
3563;SDS011;1796;52.388;13.096;2023-11-19T06:11:23;6.40;;;4.77;;
3563;SDS011;1796;52.388;13.096;2023-11-19T06:13:52;5.47;;;4.27;;
3563;SDS011;1796;52.388;13.096;2023-11-19T06:16:19;5.37;;;4.90;;
3563;SDS011;1796;52.388;13.096;2023-11-19T06:18:45;5.00;;;4.60;;
3563;SDS011;1796;52.388;13.096;2023-11-19T06:21:12;5.33;;;4.83;;
3563;SDS011;1796;52.388;13.096;2023-11-19T06:23:39;7.00;;;4.93;;
3563;SDS011;1796;52.388;13.096;2023-11-19T06:26:07;7.47;;;5.07;;
3563;SDS011;1796;52.388;13.096;2023-11-19T06:28:36;7.73;;;5.40;;
3563;SDS011;1796;52.388;13.096;2023-11-19T06:31:03;6.37;;;4.57;;
3563;SDS011;1796;52.388;13.096;2023-11-19T06:33:31;6.47;;;4.80;;
3563;SDS011;1796;52.388;13.096;2023-11-19T06:35:58;6.43;;;4.70;;
3563;SDS011;1796;52.388;13.096;2023-11-19T06:38:25;6.10;;;5.50;;
3563;SDS011;1796;52.388;13.096;2023-11-19T06:40:52;5.97;;;4.90;;
3563;SDS011;1796;52.388;13.096;2023-11-19T06:43:19;5.63;;;4.70;;
3563;SDS011;1796;52.388;13.096;2023-11-19T06:45:48;5.33;;;4.73;;
3563;SDS011;1796;52.388;13.096;2023-11-19T06:48:14;5.00;;;4.60;;
3563;SDS011;1796;52.388;13.096;2023-11-19T06:50:44;6.53;;;4.93;;
3563;SDS011;1796;52.388;13.096;2023-11-19T06:53:11;4.57;;;4.20;;
3563;SDS011;1796;52.388;13.096;2023-11-19T06:55:40;5.57;;;4.90;;
3563;SDS011;1796;52.388;13.096;2023-11-19T06:58:07;6.63;;;5.93;;
3563;SDS011;1796;52.388;13.096;2023-11-19T07:00:34;5.00;;;4.60;;
3563;SDS011;1796;52.388;13.096;2023-11-19T07:03:02;6.13;;;4.50;;
3563;SDS011;1796;52.388;13.096;2023-11-19T07:05:31;5.57;;;4.03;;
3563;SDS011;1796;52.388;13.096;2023-11-19T07:07:58;5.23;;;4.83;;
3563;SDS011;1796;52.388;13.096;2023-11-19T07:10:26;4.43;;;4.03;;
3563;SDS011;1796;52.388;13.096;2023-11-19T07:12:54;4.43;;;3.87;;
3563;SDS011;1796;52.388;13.096;2023-11-19T07:15:21;4.30;;;3.90;;
3563;SDS011;1796;52.388;13.096;2023-11-19T07:17:48;4.03;;;3.73;;
3563;SDS011;1796;52.388;13.096;2023-11-19T07:20:16;4.80;;;4.37;;
3563;SDS011;1796;52.388;13.096;2023-11-19T07:22:44;3.40;;;3.17;;
3563;SDS011;1796;52.388;13.096;2023-11-19T07:25:11;4.70;;;4.10;;
3563;SDS011;1796;52.388;13.096;2023-11-19T07:27:39;4.17;;;3.77;;
3563;SDS011;1796;52.388;13.096;2023-11-19T07:30:09;4.67;;;4.27;;
3563;SDS011;1796;52.388;13.096;2023-11-19T07:32:36;4.57;;;4.17;;
3563;SDS011;1796;52.388;13.096;2023-11-19T07:35:07;5.13;;;4.10;;
3563;SDS011;1796;52.388;13.096;2023-11-19T07:37:36;4.07;;;3.77;;
3563;SDS011;1796;52.388;13.096;2023-11-19T07:40:03;4.00;;;3.80;;
3563;SDS011;1796;52.388;13.096;2023-11-19T07:42:30;4.27;;;3.90;;
3563;SDS011;1796;52.388;13.096;2023-11-19T07:44:57;17.60;;;9.40;;
3563;SDS011;1796;52.388;13.096;2023-11-19T07:47:24;4.13;;;3.77;;
3563;SDS011;1796;52.388;13.096;2023-11-19T07:49:51;3.87;;;3.57;;
3563;SDS011;1796;52.388;13.096;2023-11-19T07:52:18;4.07;;;3.73;;
3563;SDS011;1796;52.388;13.096;2023-11-19T07:54:46;15.67;;;8.43;;
3563;SDS011;1796;52.388;13.096;2023-11-19T07:57:13;3.67;;;3.30;;
3563;SDS011;1796;52.388;13.096;2023-11-19T07:59:40;3.07;;;2.97;;
3563;SDS011;1796;52.388;13.096;2023-11-19T08:02:07;3.30;;;3.00;;
3563;SDS011;1796;52.388;13.096;2023-11-19T08:04:34;4.10;;;3.50;;
3563;SDS011;1796;52.388;13.096;2023-11-19T08:07:05;3.57;;;3.30;;
3563;SDS011;1796;52.388;13.096;2023-11-19T08:09:34;3.93;;;3.63;;
3563;SDS011;1796;52.388;13.096;2023-11-19T08:12:04;3.77;;;3.03;;
3563;SDS011;1796;52.388;13.096;2023-11-19T08:14:34;4.37;;;3.97;;
3563;SDS011;1796;52.388;13.096;2023-11-19T08:17:02;4.27;;;3.47;;
3563;SDS011;1796;52.388;13.096;2023-11-19T08:19:29;3.80;;;3.50;;
3563;SDS011;1796;52.388;13.096;2023-11-19T08:21:56;3.30;;;3.10;;
3563;SDS011;1796;52.388;13.096;2023-11-19T08:24:25;3.60;;;3.40;;
3563;SDS011;1796;52.388;13.096;2023-11-19T08:26:53;3.73;;;3.40;;
3563;SDS011;1796;52.388;13.096;2023-11-19T08:29:21;5.13;;;4.70;;
3563;SDS011;1796;52.388;13.096;2023-11-19T08:31:48;3.97;;;3.67;;
3563;SDS011;1796;52.388;13.096;2023-11-19T08:34:15;4.43;;;4.03;;
3563;SDS011;1796;52.388;13.096;2023-11-19T08:36:42;8.80;;;7.13;;
3563;SDS011;1796;52.388;13.096;2023-11-19T08:39:08;4.87;;;3.67;;
3563;SDS011;1796;52.388;13.096;2023-11-19T08:41:35;5.53;;;5.07;;
3563;SDS011;1796;52.388;13.096;2023-11-19T08:44:04;14.17;;;9.87;;
3563;SDS011;1796;52.388;13.096;2023-11-19T08:46:33;13.30;;;9.73;;
3563;SDS011;1796;52.388;13.096;2023-11-19T08:49:00;9.20;;;7.97;;
3563;SDS011;1796;52.388;13.096;2023-11-19T08:51:28;4.93;;;4.53;;
3563;SDS011;1796;52.388;13.096;2023-11-19T08:53:54;5.80;;;5.30;;
3563;SDS011;1796;52.388;13.096;2023-11-19T08:56:22;9.70;;;8.50;;
3563;SDS011;1796;52.388;13.096;2023-11-19T08:58:49;7.23;;;6.03;;
3563;SDS011;1796;52.388;13.096;2023-11-19T09:01:16;31.87;;;22.90;;
3563;SDS011;1796;52.388;13.096;2023-11-19T09:03:44;21.33;;;16.00;;
3563;SDS011;1796;52.388;13.096;2023-11-19T09:06:11;6.90;;;6.20;;
3563;SDS011;1796;52.388;13.096;2023-11-19T09:08:38;17.60;;;9.77;;
3563;SDS011;1796;52.388;13.096;2023-11-19T09:11:08;12.63;;;7.20;;
3563;SDS011;1796;52.388;13.096;2023-11-19T09:13:35;4.83;;;3.50;;
3563;SDS011;1796;52.388;13.096;2023-11-19T09:16:02;3.53;;;3.00;;
3563;SDS011;1796;52.388;13.096;2023-11-19T09:18:30;5.40;;;3.70;;
3563;SDS011;1796;52.388;13.096;2023-11-19T09:20:59;5.93;;;3.13;;
3563;SDS011;1796;52.388;13.096;2023-11-19T09:23:26;1.83;;;1.60;;
3563;SDS011;1796;52.388;13.096;2023-11-19T09:25:54;6.07;;;2.13;;
3563;SDS011;1796;52.388;13.096;2023-11-19T09:28:21;2.40;;;2.20;;
3563;SDS011;1796;52.388;13.096;2023-11-19T09:30:48;2.00;;;1.90;;
3563;SDS011;1796;52.388;13.096;2023-11-19T09:33:14;4.83;;;1.90;;
3563;SDS011;1796;52.388;13.096;2023-11-19T09:35:41;3.80;;;2.20;;
3563;SDS011;1796;52.388;13.096;2023-11-19T09:38:09;2.50;;;2.30;;
3563;SDS011;1796;52.388;13.096;2023-11-19T09:40:37;4.70;;;2.33;;
3563;SDS011;1796;52.388;13.096;2023-11-19T09:43:04;4.03;;;2.77;;
3563;SDS011;1796;52.388;13.096;2023-11-19T09:45:32;3.20;;;1.90;;
3563;SDS011;1796;52.388;13.096;2023-11-19T09:48:08;7.10;;;2.00;;
3563;SDS011;1796;52.388;13.096;2023-11-19T09:50:35;8.27;;;2.13;;
3563;SDS011;1796;52.388;13.096;2023-11-19T09:53:02;8.00;;;1.87;;
3563;SDS011;1796;52.388;13.096;2023-11-19T09:55:30;5.73;;;2.30;;
3563;SDS011;1796;52.388;13.096;2023-11-19T09:57:57;3.40;;;1.80;;
3563;SDS011;1796;52.388;13.096;2023-11-19T10:00:26;6.33;;;1.90;;
3563;SDS011;1796;52.388;13.096;2023-11-19T10:02:54;3.03;;;1.57;;
3563;SDS011;1796;52.388;13.096;2023-11-19T10:05:22;7.43;;;2.63;;
3563;SDS011;1796;52.388;13.096;2023-11-19T10:07:51;8.73;;;2.20;;
3563;SDS011;1796;52.388;13.096;2023-11-19T10:10:18;3.37;;;1.87;;
3563;SDS011;1796;52.388;13.096;2023-11-19T10:12:46;8.93;;;1.93;;
3563;SDS011;1796;52.388;13.096;2023-11-19T10:15:16;3.80;;;2.03;;
3563;SDS011;1796;52.388;13.096;2023-11-19T10:17:46;2.93;;;1.90;;
3563;SDS011;1796;52.388;13.096;2023-11-19T10:20:13;6.80;;;2.13;;
3563;SDS011;1796;52.388;13.096;2023-11-19T10:22:40;2.93;;;1.70;;
3563;SDS011;1796;52.388;13.096;2023-11-19T10:25:08;8.47;;;2.03;;
3563;SDS011;1796;52.388;13.096;2023-11-19T10:27:50;3.43;;;1.83;;
3563;SDS011;1796;52.388;13.096;2023-11-19T10:30:17;7.83;;;1.80;;
3563;SDS011;1796;52.388;13.096;2023-11-19T10:32:46;9.17;;;1.93;;
3563;SDS011;1796;52.388;13.096;2023-11-19T10:35:28;4.00;;;2.10;;
3563;SDS011;1796;52.388;13.096;2023-11-19T10:37:55;11.60;;;5.63;;
3563;SDS011;1796;52.388;13.096;2023-11-19T10:40:22;7.70;;;1.67;;
3563;SDS011;1796;52.388;13.096;2023-11-19T10:42:58;10.90;;;2.63;;
3563;SDS011;1796;52.388;13.096;2023-11-19T10:45:28;5.67;;;2.57;;
3563;SDS011;1796;52.388;13.096;2023-11-19T10:47:55;9.70;;;2.63;;
3563;SDS011;1796;52.388;13.096;2023-11-19T10:50:23;7.10;;;2.60;;
3563;SDS011;1796;52.388;13.096;2023-11-19T10:52:50;4.23;;;1.87;;
3563;SDS011;1796;52.388;13.096;2023-11-19T10:55:21;13.33;;;3.00;;
3563;SDS011;1796;52.388;13.096;2023-11-19T10:57:53;8.93;;;2.10;;
3563;SDS011;1796;52.388;13.096;2023-11-19T11:00:28;6.40;;;2.33;;
3563;SDS011;1796;52.388;13.096;2023-11-19T11:03:00;9.60;;;2.50;;
3563;SDS011;1796;52.388;13.096;2023-11-19T11:05:29;8.07;;;2.80;;
3563;SDS011;1796;52.388;13.096;2023-11-19T11:07:59;16.27;;;3.23;;
3563;SDS011;1796;52.388;13.096;2023-11-19T11:10:26;7.83;;;2.63;;
3563;SDS011;1796;52.388;13.096;2023-11-19T11:13:01;10.77;;;3.03;;
3563;SDS011;1796;52.388;13.096;2023-11-19T11:15:30;13.80;;;3.90;;
3563;SDS011;1796;52.388;13.096;2023-11-19T11:17:59;12.90;;;3.57;;
3563;SDS011;1796;52.388;13.096;2023-11-19T11:20:27;13.30;;;2.60;;
3563;SDS011;1796;52.388;13.096;2023-11-19T11:23:00;15.67;;;2.83;;
3563;SDS011;1796;52.388;13.096;2023-11-19T11:25:55;6.97;;;3.03;;
3563;SDS011;1796;52.388;13.096;2023-11-19T11:28:33;15.40;;;3.70;;
3563;SDS011;1796;52.388;13.096;2023-11-19T11:31:15;17.30;;;3.53;;
3563;SDS011;1796;52.388;13.096;2023-11-19T11:36:57;20.67;;;2.40;;
3563;SDS011;1796;52.388;13.096;2023-11-19T11:39:32;6.30;;;2.70;;
3563;SDS011;1796;52.388;13.096;2023-11-19T11:45:04;14.03;;;3.10;;
3563;SDS011;1796;52.388;13.096;2023-11-19T11:50:56;17.10;;;2.90;;
3563;SDS011;1796;52.388;13.096;2023-11-19T11:53:24;23.93;;;3.57;;
3563;SDS011;1796;52.388;13.096;2023-11-19T11:55:53;16.53;;;3.33;;
3563;SDS011;1796;52.388;13.096;2023-11-19T11:58:21;10.50;;;2.77;;
3563;SDS011;1796;52.388;13.096;2023-11-19T12:00:53;7.93;;;3.07;;
3563;SDS011;1796;52.388;13.096;2023-11-19T12:03:20;16.10;;;3.67;;
3563;SDS011;1796;52.388;13.096;2023-11-19T12:05:49;18.50;;;3.77;;
3563;SDS011;1796;52.388;13.096;2023-11-19T12:08:18;12.63;;;3.70;;
3563;SDS011;1796;52.388;13.096;2023-11-19T12:10:47;14.10;;;3.37;;
3563;SDS011;1796;52.388;13.096;2023-11-19T12:13:14;8.23;;;3.53;;
3563;SDS011;1796;52.388;13.096;2023-11-19T12:18:40;14.07;;;3.53;;
3563;SDS011;1796;52.388;13.096;2023-11-19T12:21:11;14.67;;;3.40;;
3563;SDS011;1796;52.388;13.096;2023-11-19T12:23:53;25.37;;;4.47;;
3563;SDS011;1796;52.388;13.096;2023-11-19T12:26:21;18.43;;;4.47;;
3563;SDS011;1796;52.388;13.096;2023-11-19T12:29:00;12.57;;;3.70;;
3563;SDS011;1796;52.388;13.096;2023-11-19T12:31:30;23.50;;;4.00;;
3563;SDS011;1796;52.388;13.096;2023-11-19T12:33:58;12.37;;;3.70;;
3563;SDS011;1796;52.388;13.096;2023-11-19T12:36:26;16.30;;;3.20;;
3563;SDS011;1796;52.388;13.096;2023-11-19T12:38:53;14.50;;;3.83;;
3563;SDS011;1796;52.388;13.096;2023-11-19T12:41:20;28.30;;;4.33;;
3563;SDS011;1796;52.388;13.096;2023-11-19T12:43:48;19.97;;;5.43;;
3563;SDS011;1796;52.388;13.096;2023-11-19T12:46:18;16.17;;;5.03;;
3563;SDS011;1796;52.388;13.096;2023-11-19T12:48:51;22.27;;;4.67;;
3563;SDS011;1796;52.388;13.096;2023-11-19T12:51:22;21.03;;;4.77;;
3563;SDS011;1796;52.388;13.096;2023-11-19T12:53:59;12.47;;;4.37;;
3563;SDS011;1796;52.388;13.096;2023-11-19T12:56:26;17.13;;;4.73;;
3563;SDS011;1796;52.388;13.096;2023-11-19T12:58:57;19.07;;;5.13;;
3563;SDS011;1796;52.388;13.096;2023-11-19T13:01:36;32.77;;;5.23;;
3563;SDS011;1796;52.388;13.096;2023-11-19T13:04:16;20.57;;;4.40;;
3563;SDS011;1796;52.388;13.096;2023-11-19T13:06:45;21.27;;;4.33;;
3563;SDS011;1796;52.388;13.096;2023-11-19T13:09:21;30.00;;;5.10;;
3563;SDS011;1796;52.388;13.096;2023-11-19T13:11:48;26.07;;;5.00;;
3563;SDS011;1796;52.388;13.096;2023-11-19T13:14:15;25.90;;;4.53;;
3563;SDS011;1796;52.388;13.096;2023-11-19T13:16:42;24.00;;;5.73;;
3563;SDS011;1796;52.388;13.096;2023-11-19T13:19:10;23.17;;;5.23;;
3563;SDS011;1796;52.388;13.096;2023-11-19T13:21:39;24.77;;;4.47;;
3563;SDS011;1796;52.388;13.096;2023-11-19T13:24:06;21.27;;;4.93;;
3563;SDS011;1796;52.388;13.096;2023-11-19T13:26:35;24.97;;;5.03;;
3563;SDS011;1796;52.388;13.096;2023-11-19T13:29:03;24.80;;;5.10;;
3563;SDS011;1796;52.388;13.096;2023-11-19T13:31:33;22.40;;;4.93;;
3563;SDS011;1796;52.388;13.096;2023-11-19T13:34:03;30.37;;;5.70;;
3563;SDS011;1796;52.388;13.096;2023-11-19T13:36:32;30.67;;;5.30;;
3563;SDS011;1796;52.388;13.096;2023-11-19T13:39:00;16.93;;;5.03;;
3563;SDS011;1796;52.388;13.096;2023-11-19T13:41:28;24.17;;;4.80;;
3563;SDS011;1796;52.388;13.096;2023-11-19T13:44:01;25.50;;;4.70;;
3563;SDS011;1796;52.388;13.096;2023-11-19T13:46:35;28.43;;;4.83;;
3563;SDS011;1796;52.388;13.096;2023-11-19T13:49:04;27.43;;;4.20;;
3563;SDS011;1796;52.388;13.096;2023-11-19T13:51:37;20.30;;;3.97;;
3563;SDS011;1796;52.388;13.096;2023-11-19T13:54:06;26.10;;;4.90;;
3563;SDS011;1796;52.388;13.096;2023-11-19T13:56:33;24.70;;;4.73;;
3563;SDS011;1796;52.388;13.096;2023-11-19T13:59:00;27.70;;;4.93;;
3563;SDS011;1796;52.388;13.096;2023-11-19T14:01:27;29.43;;;4.77;;
3563;SDS011;1796;52.388;13.096;2023-11-19T14:03:56;30.00;;;5.10;;
3563;SDS011;1796;52.388;13.096;2023-11-19T14:06:23;23.37;;;3.93;;
3563;SDS011;1796;52.388;13.096;2023-11-19T14:08:49;28.77;;;5.27;;
3563;SDS011;1796;52.388;13.096;2023-11-19T14:11:20;19.93;;;3.90;;
3563;SDS011;1796;52.388;13.096;2023-11-19T14:13:47;13.00;;;4.20;;
3563;SDS011;1796;52.388;13.096;2023-11-19T14:16:17;24.47;;;5.30;;
3563;SDS011;1796;52.388;13.096;2023-11-19T14:18:50;20.03;;;3.73;;
3563;SDS011;1796;52.388;13.096;2023-11-19T14:21:19;30.63;;;5.20;;
3563;SDS011;1796;52.388;13.096;2023-11-19T14:23:47;21.30;;;4.53;;
3563;SDS011;1796;52.388;13.096;2023-11-19T14:26:14;20.33;;;4.37;;
3563;SDS011;1796;52.388;13.096;2023-11-19T14:28:46;24.97;;;4.03;;
3563;SDS011;1796;52.388;13.096;2023-11-19T14:31:15;41.50;;;4.50;;
3563;SDS011;1796;52.388;13.096;2023-11-19T14:33:42;31.00;;;4.20;;
3563;SDS011;1796;52.388;13.096;2023-11-19T14:36:10;26.33;;;4.53;;
3563;SDS011;1796;52.388;13.096;2023-11-19T14:38:49;36.07;;;5.17;;
3563;SDS011;1796;52.388;13.096;2023-11-19T14:41:16;32.60;;;4.77;;
3563;SDS011;1796;52.388;13.096;2023-11-19T14:44:14;23.43;;;4.57;;
3563;SDS011;1796;52.388;13.096;2023-11-19T14:46:44;21.53;;;4.00;;
3563;SDS011;1796;52.388;13.096;2023-11-19T14:49:11;30.93;;;4.63;;
3563;SDS011;1796;52.388;13.096;2023-11-19T14:51:39;17.57;;;4.47;;
3563;SDS011;1796;52.388;13.096;2023-11-19T14:54:12;26.33;;;4.43;;
3563;SDS011;1796;52.388;13.096;2023-11-19T14:56:43;18.57;;;4.67;;
3563;SDS011;1796;52.388;13.096;2023-11-19T14:59:12;38.77;;;5.63;;
3563;SDS011;1796;52.388;13.096;2023-11-19T15:01:44;21.23;;;4.63;;
3563;SDS011;1796;52.388;13.096;2023-11-19T15:04:17;32.87;;;6.00;;
3563;SDS011;1796;52.388;13.096;2023-11-19T15:06:50;27.43;;;5.83;;
3563;SDS011;1796;52.388;13.096;2023-11-19T15:09:17;22.33;;;4.77;;
3563;SDS011;1796;52.388;13.096;2023-11-19T15:11:46;31.70;;;4.97;;
3563;SDS011;1796;52.388;13.096;2023-11-19T15:14:15;28.63;;;4.87;;
3563;SDS011;1796;52.388;13.096;2023-11-19T15:16:44;22.27;;;4.33;;
3563;SDS011;1796;52.388;13.096;2023-11-19T15:19:12;28.20;;;5.45;;